| time (UTC) | temp F | wind direction | speed MPH | gust MPH | rain 1hr in | rain 24hr in | rain mn in | humidity % | barometer mb |
| 20260904045504 | 58 | 271 | 5.0 | 17.0 | 0.00 | 0.58 | 0.00 | 87 | 1000.9 |
| 20260904044504 | 58 | 262 | 3.0 | 11.0 | 0.00 | 0.58 | 0.00 | 87 | 1000.9 |
| 20260904044004 | 58 | 265 | 2.0 | 11.0 | 0.00 | 0.58 | 0.00 | 88 | 1001.9 |
| 20260904043005 | 58 | 277 | 4.0 | 17.0 | 0.00 | 0.58 | 0.00 | 87 | 1001.9 |
| 20260904042504 | 58 | 275 | 2.0 | 8.0 | 0.00 | 0.58 | 0.00 | 88 | 1000.9 |
| 20260904042005 | 58 | 270 | 5.0 | 11.0 | 0.00 | 0.58 | 0.00 | 87 | 1000.9 |
| 20260904041503 | 58 | 268 | 6.0 | 15.0 | 0.00 | 0.58 | 0.00 | 87 | 1000.9 |
| 20260904041004 | 58 | 262 | 8.0 | 18.0 | 0.00 | 0.58 | 0.00 | 87 | 1000.9 |
| 20260904040503 | 58 | 262 | 7.0 | 18.0 | 0.00 | 0.58 | 0.00 | 87 | 1000.9 |
| 20260904040005 | 58 | 271 | 6.0 | 17.0 | 0.00 | 0.58 | 0.00 | 88 | 1000.9 |
| 20260904035504 | 58 | 273 | 7.0 | 17.0 | 0.00 | 0.58 | 0.00 | 88 | 1001.9 |
| 20260904035005 | 58 | 275 | 7.0 | 17.0 | 0.00 | 0.58 | 0.00 | 88 | 1001.9 |
| 20260904034004 | 58 | 276 | 6.0 | 11.0 | 0.00 | 0.58 | 0.00 | 88 | 1001.9 |
| 20260904033503 | 58 | 272 | 6.0 | 14.0 | 0.00 | 0.58 | 0.00 | 88 | 1001.9 |
| 20260904033004 | 58 | 270 | 7.0 | 14.0 | 0.00 | 0.58 | 0.00 | 88 | 1001.9 |
| 20260904032503 | 58 | 270 | 8.0 | 17.0 | 0.00 | 0.58 | 0.00 | 88 | 1001.9 |
| 20260904032004 | 58 | 273 | 8.0 | 17.0 | 0.00 | 0.58 | 0.00 | 87 | 1001.9 |
| 20260904031503 | 58 | 272 | 8.0 | 15.0 | 0.00 | 0.58 | 0.00 | 87 | 1001.9 |
| 20260904031005 | 58 | 260 | 7.0 | 15.0 | 0.00 | 0.58 | 0.00 | 88 | 1001.9 |
| 20260904030504 | 58 | 243 | 5.0 | 13.0 | 0.00 | 0.58 | 0.00 | 88 | 1001.9 |
| 20260904030005 | 58 | 258 | 5.0 | 12.0 | 0.00 | 0.58 | 0.00 | 88 | 1001.9 |
| 20260904025503 | 58 | 270 | 6.0 | 12.0 | 0.00 | 0.58 | 0.00 | 89 | 1001.9 |
| 20260904025004 | 58 | 277 | 6.0 | 12.0 | 0.00 | 0.58 | 0.00 | 89 | 1001.9 |
| 20260904024504 | 58 | 283 | 5.0 | 14.0 | 0.00 | 0.58 | 0.00 | 89 | 1001.9 |
| 20260904024004 | 58 | 276 | 4.0 | 14.0 | 0.00 | 0.58 | 0.00 | 89 | 1001.9 |
| 20260904023504 | 58 | 259 | 4.0 | 13.0 | 0.00 | 0.58 | 0.00 | 89 | 1001.9 |
| 20260904023004 | 58 | 258 | 5.0 | 16.0 | 0.00 | 0.58 | 0.00 | 88 | 1001.9 |
| 20260904022004 | 58 | 274 | 6.0 | 15.0 | 0.00 | 0.58 | 0.00 | 88 | 1001.9 |
| 20260904021503 | 58 | 284 | 5.0 | 10.0 | 0.00 | 0.58 | 0.00 | 89 | 1001.9 |
| 20260904021004 | 58 | 292 | 5.0 | 10.0 | 0.00 | 0.58 | 0.00 | 88 | 1001.9 |
| 20260904020504 | 58 | 282 | 4.0 | 10.0 | 0.00 | 0.58 | 0.00 | 88 | 1001.9 |
| 20260904020004 | 58 | 273 | 5.0 | 13.0 | 0.00 | 0.58 | 0.00 | 88 | 1001.9 |
| 20260904015504 | 58 | 270 | 6.0 | 13.0 | 0.00 | 0.58 | 0.00 | 88 | 1002.9 |
| 20260904015004 | 58 | 274 | 5.0 | 11.0 | 0.00 | 0.58 | 0.00 | 87 | 1002.9 |
| 20260904014005 | 58 | 285 | 7.0 | 17.0 | 0.00 | 0.58 | 0.00 | 87 | 1002.9 |
| 20260904013503 | 58 | 290 | 6.0 | 17.0 | 0.00 | 0.58 | 0.00 | 88 | 1002.9 |
| 20260904013005 | 58 | 278 | 8.0 | 19.0 | 0.00 | 0.58 | 0.00 | 88 | 1002.9 |
| 20260904012503 | 58 | 272 | 8.0 | 19.0 | 0.00 | 0.58 | 0.00 | 87 | 1002.9 |
| 20260904011503 | 58 | 265 | 8.0 | 15.0 | 0.00 | 0.58 | 0.00 | 87 | 1002.9 |
| 20260904011004 | 58 | 255 | 8.0 | 14.0 | 0.00 | 0.58 | 0.00 | 88 | 1002.9 |
| 20260904010504 | 58 | 264 | 8.0 | 19.0 | 0.00 | 0.58 | 0.00 | 88 | 1002.9 |
| 20260904010005 | 58 | 278 | 10.0 | 19.0 | 0.00 | 0.58 | 0.00 | 88 | 1002.9 |
| 20260904005004 | 58 | 270 | 10.0 | 18.0 | 0.00 | 0.58 | 0.00 | 89 | 1002.9 |
| 20260904004504 | 58 | 267 | 9.0 | 22.0 | 0.00 | 0.58 | 0.00 | 89 | 1002.9 |
| 20260904004004 | 58 | 276 | 10.0 | 22.0 | 0.00 | 0.58 | 0.00 | 89 | 1002.9 |
| 20260904003504 | 58 | 273 | 9.0 | 18.0 | 0.00 | 0.58 | 0.00 | 90 | 1002.9 |
| 20260904003004 | 58 | 271 | 8.0 | 14.0 | 0.00 | 0.58 | 0.00 | 90 | 1002.9 |
| 20260904002503 | 58 | 281 | 8.0 | 19.0 | 0.00 | 0.58 | 0.00 | 89 | 1002.9 |
| 20260904002005 | 59 | 280 | 9.0 | 19.0 | 0.00 | 0.58 | 0.00 | 89 | 1002.9 |
| 20260904001503 | 59 | 269 | 8.0 | 16.0 | 0.00 | 0.58 | 0.00 | 89 | 1002.9 |
| 20260904001005 | 59 | 260 | 6.0 | 14.0 | 0.00 | 0.58 | 0.00 | 91 | 1002.9 |
| 20260904000005 | 59 | 277 | 7.0 | 22.0 | 0.00 | 0.58 | 0.00 | 91 | 1002.9 |
| 20260903235503 | 59 | 286 | 7.0 | 22.0 | 0.00 | 0.58 | 0.00 | 91 | 1002.9 |
| 20260903235005 | 59 | 288 | 8.0 | 20.0 | 0.00 | 0.58 | 0.00 | 92 | 1002.9 |
| 20260903234503 | 59 | 274 | 8.0 | 20.0 | 0.00 | 0.58 | 0.00 | 93 | 1002.9 |
| 20260903234005 | 59 | 271 | 7.0 | 15.0 | 0.00 | 0.58 | 0.00 | 93 | 1003.9 |
| 20260903233503 | 59 | 281 | 8.0 | 18.0 | 0.00 | 0.58 | 0.00 | 93 | 1003.9 |
| 20260903233005 | 59 | 284 | 7.0 | 18.0 | 0.00 | 0.58 | 0.00 | 93 | 1003.9 |
| 20260903232004 | 59 | 278 | 6.0 | 18.0 | 0.00 | 0.58 | 0.00 | 94 | 1002.9 |
| 20260903231504 | 59 | 287 | 8.0 | 18.0 | 0.00 | 0.58 | 0.00 | 94 | 1002.9 |
| 20260903231004 | 59 | 279 | 8.0 | 18.0 | 0.00 | 0.58 | 0.00 | 94 | 1002.9 |
| 20260903230504 | 59 | 276 | 7.0 | 18.0 | 0.00 | 0.58 | 0.00 | 95 | 1002.9 |
| 20260903225503 | 60 | 262 | 7.0 | 15.0 | 0.00 | 0.58 | 0.00 | 96 | 1002.9 |
| 20260903225005 | 60 | 271 | 9.0 | 19.0 | 0.00 | 0.58 | 0.00 | 96 | 1002.9 |
| 20260903224503 | 60 | 279 | 8.0 | 19.0 | 0.00 | 0.58 | 0.00 | 96 | 1002.9 |
| 20260903224004 | 60 | 282 | 7.0 | 15.0 | 0.00 | 0.58 | 0.00 | 97 | 1002.9 |
| 20260903223503 | 60 | 284 | 8.0 | 17.0 | 0.00 | 0.58 | 0.00 | 97 | 1002.9 |
| 20260903223004 | 60 | 283 | 8.0 | 17.0 | 0.00 | 0.58 | 0.00 | 100 | 1002.9 |
| 20260903222004 | 60 | 274 | 6.0 | 14.0 | 0.00 | 0.58 | 0.00 | 100 | 1002.9 |
| 20260903221504 | 60 | 269 | 6.0 | 16.0 | 0.00 | 0.58 | 0.00 | 100 | 1002.9 |
| 20260903221004 | 60 | 270 | 9.0 | 19.0 | 0.00 | 0.58 | 0.00 | 100 | 1003.9 |
| 20260903220503 | 60 | 266 | 11.0 | 19.0 | 0.00 | 0.58 | 0.00 | 97 | 1003.9 |
| 20260903220005 | 60 | 266 | 8.0 | 17.0 | 0.00 | 0.58 | 0.00 | 100 | 1003.9 |
| 20260903215503 | 60 | 272 | 6.0 | 19.0 | 0.00 | 0.58 | 0.58 | 100 | 1002.9 |
| 20260903215005 | 60 | 262 | 7.0 | 19.0 | 0.00 | 0.58 | 0.58 | 100 | 1002.9 |
| 20260903214503 | 60 | 273 | 7.0 | 18.0 | 0.00 | 0.58 | 0.58 | 100 | 1002.9 |
| 20260903213504 | 60 | 271 | 9.0 | 20.0 | 0.00 | 0.58 | 0.58 | 100 | 1002.9 |
| 20260903213005 | 60 | 270 | 10.0 | 21.0 | 0.00 | 0.58 | 0.58 | 100 | 1002.9 |
| 20260903212503 | 60 | 279 | 9.0 | 21.0 | 0.00 | 0.58 | 0.58 | 100 | 1002.9 |
| 20260903211005 | 61 | 263 | 8.0 | 18.0 | 0.00 | 0.58 | 0.58 | 100 | 1002.9 |
| 20260903210503 | 60 | 268 | 7.0 | 17.0 | 0.00 | 0.58 | 0.58 | 100 | 1002.9 |
| 20260903210005 | 60 | 280 | 7.0 | 15.0 | 0.00 | 0.58 | 0.58 | 100 | 1002.9 |
| 20260903205503 | 61 | 279 | 9.0 | 17.0 | 0.00 | 0.58 | 0.58 | 100 | 1002.9 |
| 20260903205005 | 61 | 273 | 10.0 | 19.0 | 0.00 | 0.58 | 0.58 | 100 | 1002.9 |
| 20260903204503 | 62 | 268 | 9.0 | 19.0 | 0.00 | 0.58 | 0.58 | 100 | 1002.9 |
| 20260903204004 | 62 | 284 | 8.0 | 15.0 | 0.00 | 0.58 | 0.58 | 100 | 1002.9 |
| 20260903203504 | 62 | 291 | 9.0 | 18.0 | 0.00 | 0.58 | 0.58 | 100 | 1002.9 |
| 20260903203004 | 62 | 277 | 10.0 | 20.0 | 0.00 | 0.58 | 0.58 | 100 | 1002.9 |
| 20260903202504 | 62 | 268 | 10.0 | 21.0 | 0.00 | 0.58 | 0.58 | 100 | 1002.9 |
| 20260903202004 | 62 | 265 | 9.0 | 21.0 | 0.00 | 0.58 | 0.58 | 100 | 1002.9 |
| 20260903201504 | 62 | 274 | 9.0 | 15.0 | 0.00 | 0.58 | 0.58 | 100 | 1002.9 |
| 20260903200005 | 62 | 273 | 8.0 | 15.0 | 0.00 | 0.58 | 0.58 | 100 | 1002.9 |
| 20260903195503 | 62 | 254 | 7.0 | 15.0 | 0.00 | 0.58 | 0.58 | 100 | 1002.9 |
| 20260903195005 | 62 | 270 | 7.0 | 19.0 | 0.00 | 0.58 | 0.58 | 100 | 1002.9 |
| 20260903194503 | 62 | 276 | 6.0 | 19.0 | 0.00 | 0.58 | 0.58 | 100 | 1002.9 |
| 20260903194004 | 62 | 284 | 6.0 | 12.0 | 0.00 | 0.58 | 0.58 | 100 | 1002.9 |
| 20260903193504 | 62 | 287 | 6.0 | 12.0 | 0.00 | 0.58 | 0.58 | 100 | 1002.9 |
| 20260903193004 | 62 | 279 | 7.0 | 15.0 | 0.00 | 0.51 | 0.51 | 100 | 1002.9 |
| 20260903192504 | 62 | 279 | 8.0 | 15.0 | 0.00 | 0.51 | 0.51 | 100 | 1002.9 |
| 20260903192004 | 62 | 284 | 7.0 | 12.0 | 0.00 | 0.51 | 0.51 | 100 | 1002.9 |
| 20260903191504 | 62 | 283 | 5.0 | 12.0 | 0.00 | 0.51 | 0.51 | 100 | 1002.9 |
| 20260903190005 | 62 | 244 | 1.0 | 9.0 | 0.00 | 0.51 | 0.51 | 100 | 1001.9 |
| 20260903185503 | 62 | 277 | 0.0 | 4.0 | 0.00 | 0.51 | 0.51 | 100 | 1001.9 |
| 20260903185004 | 62 | 207 | 1.0 | 4.0 | 0.00 | 0.51 | 0.51 | 100 | 1001.9 |
| 20260903184504 | 62 | 251 | 3.0 | 10.0 | 0.00 | 0.51 | 0.51 | 100 | 1001.9 |
| 20260903184004 | 62 | 263 | 3.0 | 10.0 | 0.00 | 0.51 | 0.51 | 100 | 1002.9 |
| 20260903183503 | 62 | 283 | 2.0 | 7.0 | 0.00 | 0.51 | 0.51 | 100 | 1002.9 |
| 20260903183005 | 62 | 280 | 3.0 | 8.0 | 0.00 | 0.51 | 0.51 | 100 | 1002.9 |
| 20260903182503 | 62 | 251 | 3.0 | 8.0 | 0.00 | 0.51 | 0.51 | 100 | 1002.9 |
| 20260903182005 | 63 | 239 | 2.0 | 8.0 | 0.00 | 0.51 | 0.51 | 100 | 1002.9 |
| 20260903181503 | 63 | 236 | 1.0 | 8.0 | 0.00 | 0.51 | 0.51 | 100 | 1002.9 |
| 20260903181005 | 63 | 268 | 1.0 | 8.0 | 0.00 | 0.51 | 0.51 | 100 | 1002.9 |
| 20260903180503 | 63 | 247 | 2.0 | 8.0 | 0.00 | 0.51 | 0.51 | 100 | 1002.9 |
| 20260903180005 | 63 | 238 | 2.0 | 6.0 | 0.00 | 0.51 | 0.51 | 100 | 1002.9 |
| 20260903175504 | 63 | 230 | 2.0 | 6.0 | 0.00 | 0.51 | 0.51 | 100 | 1001.9 |
| 20260903175005 | 63 | 222 | 1.0 | 6.0 | 0.00 | 0.51 | 0.51 | 100 | 1001.9 |
| 20260903174503 | 63 | 231 | 0.0 | 4.0 | 0.00 | 0.51 | 0.51 | 100 | 1001.9 |
| 20260903174005 | 63 | 217 | 1.0 | 4.0 | 0.00 | 0.51 | 0.51 | 100 | 1002.9 |
| 20260903173503 | 63 | 206 | 1.0 | 5.0 | 0.00 | 0.51 | 0.51 | 100 | 1002.9 |
| 20260903173005 | 63 | 203 | 2.0 | 7.0 | 0.00 | 0.51 | 0.51 | 100 | 1002.9 |
| 20260903172503 | 63 | 198 | 2.0 | 7.0 | 0.00 | 0.51 | 0.51 | 100 | 1002.9 |
| 20260903172005 | 63 | 195 | 2.0 | 6.0 | 0.00 | 0.51 | 0.51 | 100 | 1002.9 |
| 20260903171504 | 63 | 203 | 1.0 | 6.0 | 0.00 | 0.51 | 0.51 | 100 | 1002.9 |
| 20260903171005 | 63 | 219 | 0.0 | 4.0 | 0.00 | 0.51 | 0.51 | 100 | 1002.9 |
| 20260903170503 | 63 | 221 | 0.0 | 4.0 | 0.00 | 0.51 | 0.51 | 100 | 1002.9 |
| 20260903170005 | 63 | 213 | 0.0 | 5.0 | 0.00 | 0.51 | 0.51 | 97 | 1002.9 |
| 20260903165503 | 63 | 228 | 0.0 | 5.0 | 0.00 | 0.51 | 0.51 | 97 | 1002.9 |
| 20260903165004 | 63 | 237 | 0.0 | 5.0 | 0.00 | 0.51 | 0.51 | 97 | 1002.9 |
| 20260903164504 | 63 | 0 | 0.0 | 0.0 | 0.00 | 0.51 | 0.51 | 97 | 1002.9 |
| 20260903163503 | 63 | 209 | 1.0 | 5.0 | 0.00 | 0.51 | 0.51 | 97 | 1002.9 |
| 20260903163005 | 63 | 198 | 3.0 | 6.0 | 0.00 | 0.51 | 0.51 | 97 | 1002.9 |
| 20260903162503 | 63 | 196 | 3.0 | 6.0 | 0.00 | 0.46 | 0.46 | 97 | 1002.9 |
| 20260903162005 | 63 | 196 | 2.0 | 5.0 | 0.00 | 0.46 | 0.46 | 97 | 1002.9 |
| 20260903161503 | 63 | 201 | 4.0 | 8.0 | 0.00 | 0.46 | 0.46 | 97 | 1002.9 |
| 20260903161004 | 63 | 201 | 4.0 | 8.0 | 0.00 | 0.46 | 0.46 | 97 | 1003.9 |
| 20260903160503 | 63 | 188 | 2.0 | 7.0 | 0.00 | 0.46 | 0.46 | 97 | 1003.9 |
| 20260903160004 | 63 | 191 | 2.0 | 6.0 | 0.00 | 0.46 | 0.46 | 97 | 1003.9 |
| 20260903155504 | 63 | 190 | 3.0 | 10.0 | 0.00 | 0.46 | 0.46 | 97 | 1003.9 |
| 20260903155004 | 62 | 188 | 2.0 | 10.0 | 0.00 | 0.46 | 0.46 | 97 | 1003.9 |
| 20260903154504 | 62 | 149 | 1.0 | 5.0 | 0.00 | 0.46 | 0.46 | 97 | 1003.9 |
| 20260903154004 | 62 | 131 | 2.0 | 5.0 | 0.00 | 0.46 | 0.46 | 96 | 1003.9 |
| 20260903153504 | 62 | 142 | 1.0 | 4.0 | 0.00 | 0.46 | 0.46 | 97 | 1003.9 |
| 20260903153004 | 62 | 157 | 0.0 | 3.0 | 0.00 | 0.46 | 0.46 | 96 | 1003.9 |
| 20260903152504 | 62 | 116 | 1.0 | 4.0 | 0.00 | 0.46 | 0.46 | 96 | 1004.9 |
| 20260903152004 | 62 | 112 | 2.0 | 5.0 | 0.00 | 0.46 | 0.46 | 96 | 1004.9 |
| 20260903151005 | 62 | 121 | 2.0 | 6.0 | 0.00 | 0.46 | 0.46 | 96 | 1002.9 |
| 20260903150503 | 62 | 116 | 3.0 | 7.0 | 0.00 | 0.41 | 0.41 | 96 | 1002.9 |
| 20260903150005 | 62 | 131 | 2.0 | 7.0 | 0.00 | 0.41 | 0.41 | 96 | 1002.9 |
| 20260903145503 | 62 | 118 | 3.0 | 6.0 | 0.00 | 0.41 | 0.41 | 96 | 1002.9 |
| 20260903145005 | 62 | 100 | 4.0 | 6.0 | 0.00 | 0.41 | 0.41 | 96 | 1002.9 |
| 20260903144503 | 62 | 103 | 5.0 | 6.0 | 0.00 | 0.41 | 0.41 | 96 | 1002.9 |
| 20260903144005 | 61 | 104 | 3.0 | 6.0 | 0.00 | 0.36 | 0.36 | 96 | 1004.9 |
| 20260903143503 | 62 | 137 | 1.0 | 5.0 | 0.00 | 0.36 | 0.36 | 96 | 1004.9 |
| 20260903143004 | 62 | 152 | 1.0 | 4.0 | 0.00 | 0.36 | 0.36 | 96 | 1004.9 |
| 20260903142503 | 62 | 112 | 0.0 | 2.0 | 0.00 | 0.31 | 0.31 | 95 | 1004.9 |
| 20260903142004 | 62 | 112 | 0.0 | 3.0 | 0.00 | 0.31 | 0.31 | 95 | 1004.9 |
| 20260903140504 | 62 | 149 | 1.0 | 5.0 | 0.00 | 0.31 | 0.31 | 95 | 1004.9 |
| 20260903140004 | 62 | 162 | 1.0 | 5.0 | 0.00 | 0.31 | 0.31 | 95 | 1004.9 |
| 20260903135503 | 62 | 173 | 0.0 | 4.0 | 0.00 | 0.26 | 0.26 | 95 | 1004.9 |
| 20260903134005 | 62 | 167 | 2.0 | 7.0 | 0.00 | 0.26 | 0.26 | 95 | 1005.9 |
| 20260903133004 | 62 | 167 | 1.0 | 5.0 | 0.00 | 0.26 | 0.26 | 95 | 1005.9 |
| 20260903132504 | 62 | 169 | 1.0 | 4.0 | 0.00 | 0.21 | 0.21 | 95 | 1005.9 |
| 20260903132004 | 62 | 175 | 1.0 | 4.0 | 0.00 | 0.21 | 0.21 | 95 | 1005.9 |
| 20260903131005 | 62 | 175 | 3.0 | 11.0 | 0.00 | 0.21 | 0.21 | 95 | 1004.9 |
| 20260903130503 | 62 | 169 | 3.0 | 11.0 | 0.00 | 0.21 | 0.21 | 95 | 1004.9 |
| 20260903130005 | 62 | 156 | 1.0 | 4.0 | 0.00 | 0.21 | 0.21 | 95 | 1004.9 |
| 20260903125503 | 62 | 142 | 0.0 | 3.0 | 0.00 | 0.21 | 0.21 | 94 | 1004.9 |
| 20260903125005 | 62 | 168 | 1.0 | 6.0 | 0.00 | 0.21 | 0.21 | 95 | 1004.9 |
| 20260903124503 | 62 | 184 | 3.0 | 7.0 | 0.00 | 0.21 | 0.21 | 94 | 1004.9 |
| 20260903124005 | 62 | 191 | 4.0 | 8.0 | 0.00 | 0.21 | 0.21 | 95 | 1005.9 |
| 20260903123504 | 62 | 195 | 4.0 | 8.0 | 0.00 | 0.21 | 0.21 | 95 | 1005.9 |
| 20260903123005 | 62 | 203 | 3.0 | 7.0 | 0.00 | 0.21 | 0.21 | 94 | 1005.9 |
| 20260903122504 | 62 | 190 | 3.0 | 8.0 | 0.00 | 0.21 | 0.21 | 94 | 1005.9 |
| 20260903121503 | 62 | 198 | 3.0 | 7.0 | 0.00 | 0.21 | 0.21 | 94 | 1005.9 |
| 20260903121004 | 62 | 203 | 3.0 | 7.0 | 0.00 | 0.21 | 0.21 | 94 | 1005.9 |
| 20260903114503 | 62 | 200 | 4.0 | 13.0 | 0.00 | 0.21 | 0.21 | 94 | 1005.9 |
| 20260903114005 | 63 | 197 | 2.0 | 5.0 | 0.00 | 0.21 | 0.21 | 94 | 1005.9 |
| 20260903113503 | 63 | 185 | 4.0 | 9.0 | 0.00 | 0.21 | 0.21 | 94 | 1005.9 |
| 20260903113005 | 63 | 179 | 6.0 | 14.0 | 0.00 | 0.26 | 0.21 | 94 | 1005.9 |
| 20260903112005 | 63 | 178 | 4.0 | 10.0 | 0.00 | 0.26 | 0.21 | 94 | 1006.9 |
| 20260903111503 | 63 | 190 | 3.0 | 6.0 | 0.00 | 0.26 | 0.21 | 94 | 1006.9 |
| 20260903111005 | 63 | 189 | 4.0 | 9.0 | 0.00 | 0.26 | 0.21 | 94 | 1006.9 |
| 20260903110503 | 62 | 185 | 4.0 | 9.0 | 0.00 | 0.26 | 0.21 | 94 | 1006.9 |
| 20260903110005 | 62 | 186 | 4.0 | 8.0 | 0.00 | 0.26 | 0.21 | 94 | 1006.9 |
| 20260903105503 | 63 | 190 | 5.0 | 11.0 | 0.00 | 0.26 | 0.21 | 94 | 1008.0 |
| 20260903105004 | 63 | 191 | 5.0 | 11.0 | 0.00 | 0.26 | 0.21 | 94 | 1008.0 |
| 20260903104504 | 63 | 192 | 4.0 | 8.0 | 0.00 | 0.26 | 0.21 | 94 | 1008.0 |
| 20260903104005 | 63 | 193 | 4.0 | 10.0 | 0.00 | 0.26 | 0.21 | 94 | 1008.0 |
| 20260903103504 | 62 | 189 | 4.0 | 10.0 | 0.00 | 0.26 | 0.21 | 93 | 1008.0 |
| 20260903102503 | 62 | 175 | 2.0 | 7.0 | 0.00 | 0.26 | 0.21 | 93 | 1008.0 |
| 20260903101004 | 61 | 117 | 1.0 | 5.0 | 0.00 | 0.26 | 0.21 | 93 | 1008.0 |
| 20260903100504 | 61 | 119 | 3.0 | 6.0 | 0.00 | 0.26 | 0.21 | 92 | 1008.0 |
| 20260903100004 | 61 | 128 | 3.0 | 6.0 | 0.00 | 0.20 | 0.15 | 91 | 1008.0 |
| 20260903095504 | 61 | 161 | 3.0 | 7.0 | 0.00 | 0.10 | 0.05 | 90 | 1006.9 |
| 20260903095004 | 61 | 172 | 4.0 | 9.0 | 0.00 | 0.10 | 0.05 | 90 | 1006.9 |
| 20260903094504 | 62 | 164 | 5.0 | 9.0 | 0.00 | 0.05 | 0.00 | 90 | 1006.9 |
| 20260903094004 | 62 | 165 | 3.0 | 8.0 | 0.00 | 0.05 | 0.00 | 90 | 1008.0 |
| 20260903093503 | 62 | 177 | 3.0 | 7.0 | 0.00 | 0.05 | 0.00 | 90 | 1008.0 |
| 20260903093004 | 62 | 176 | 3.0 | 7.0 | 0.00 | 0.05 | 0.00 | 90 | 1008.0 |
| 20260903092504 | 62 | 182 | 3.0 | 8.0 | 0.00 | 0.05 | 0.00 | 90 | 1008.0 |
| 20260903092004 | 62 | 183 | 4.0 | 8.0 | 0.00 | 0.05 | 0.00 | 90 | 1008.0 |
| 20260903091504 | 62 | 192 | 3.0 | 8.0 | 0.00 | 0.05 | 0.00 | 90 | 1008.0 |
| 20260903091005 | 61 | 213 | 1.0 | 5.0 | 0.00 | 0.05 | 0.00 | 90 | 1008.0 |
| 20260903090503 | 61 | 213 | 1.0 | 6.0 | 0.00 | 0.05 | 0.00 | 90 | 1008.0 |
| 20260903090005 | 61 | 209 | 3.0 | 7.0 | 0.00 | 0.05 | 0.00 | 90 | 1008.0 |
| 20260903085503 | 61 | 202 | 3.0 | 7.0 | 0.00 | 0.05 | 0.00 | 90 | 1009.0 |
| 20260903085005 | 61 | 197 | 4.0 | 7.0 | 0.00 | 0.05 | 0.00 | 90 | 1009.0 |
| 20260903084503 | 61 | 198 | 3.0 | 7.0 | 0.00 | 0.05 | 0.00 | 90 | 1009.0 |
| 20260903084005 | 61 | 197 | 3.0 | 6.0 | 0.00 | 0.05 | 0.00 | 90 | 1009.0 |
| 20260903081504 | 60 | 193 | 1.0 | 4.0 | 0.00 | 0.05 | 0.00 | 89 | 1009.0 |
| 20260903081004 | 60 | 198 | 0.0 | 3.0 | 0.00 | 0.05 | 0.00 | 89 | 1010.0 |
| 20260903080504 | 60 | 198 | 0.0 | 3.0 | 0.00 | 0.05 | 0.00 | 89 | 1010.0 |
| 20260903080006 | 60 | 183 | 1.0 | 5.0 | 0.00 | 0.05 | 0.00 | 89 | 1010.0 |
| 20260903075503 | 60 | 184 | 1.0 | 5.0 | 0.00 | 0.05 | 0.00 | 89 | 1010.0 |
| 20260903075004 | 60 | 190 | 2.0 | 6.0 | 0.00 | 0.05 | 0.00 | 89 | 1010.0 |
| 20260903073503 | 60 | 196 | 2.0 | 6.0 | 0.00 | 0.05 | 0.00 | 89 | 1010.0 |
| 20260903073004 | 60 | 198 | 2.0 | 6.0 | 0.00 | 0.05 | 0.00 | 89 | 1010.0 |
| 20260903072504 | 60 | 213 | 2.0 | 6.0 | 0.00 | 0.05 | 0.00 | 89 | 1010.0 |
| 20260903072004 | 60 | 216 | 1.0 | 6.0 | 0.00 | 0.05 | 0.00 | 89 | 1010.0 |
| 20260903070503 | 60 | 193 | 2.0 | 8.0 | 0.00 | 0.05 | 0.00 | 89 | 1010.0 |
| 20260903070005 | 59 | 186 | 2.0 | 8.0 | 0.00 | 0.05 | 0.00 | 89 | 1010.0 |
| 20260903065503 | 59 | 178 | 1.0 | 4.0 | 0.00 | 0.05 | 0.00 | 89 | 1010.0 |
| 20260903065005 | 59 | 200 | 0.0 | 3.0 | 0.00 | 0.05 | 0.00 | 89 | 1010.0 |
| 20260903064503 | 59 | 203 | 0.0 | 3.0 | 0.00 | 0.05 | 0.00 | 89 | 1010.0 |
| 20260903064005 | 59 | 233 | 1.0 | 5.0 | 0.00 | 0.05 | 0.00 | 89 | 1010.0 |
| 20260903063503 | 59 | 235 | 1.0 | 5.0 | 0.00 | 0.05 | 0.00 | 89 | 1010.0 |
| 20260903063004 | 59 | 201 | 1.0 | 4.0 | 0.00 | 0.05 | 0.00 | 89 | 1010.0 |
| 20260903062504 | 59 | 219 | 1.0 | 5.0 | 0.00 | 0.05 | 0.00 | 89 | 1010.0 |
| 20260903062004 | 59 | 223 | 1.0 | 5.0 | 0.00 | 0.05 | 0.00 | 89 | 1010.0 |
| 20260903061504 | 58 | 209 | 1.0 | 4.0 | 0.00 | 0.05 | 0.00 | 89 | 1010.0 |
| 20260903061005 | 58 | 245 | 1.0 | 5.0 | 0.00 | 0.05 | 0.00 | 90 | 1010.0 |
| 20260903060503 | 58 | 269 | 1.0 | 5.0 | 0.00 | 0.05 | 0.00 | 90 | 1010.0 |
| 20260903055503 | 57 | 270 | 1.0 | 5.0 | 0.00 | 0.05 | 0.00 | 90 | 1010.0 |
| 20260903055005 | 57 | 209 | 0.0 | 5.0 | 0.00 | 0.05 | 0.00 | 90 | 1010.0 |
| 20260903054503 | 57 | 229 | 1.0 | 5.0 | 0.00 | 0.05 | 0.00 | 90 | 1010.0 |
| 20260903054004 | 57 | 224 | 1.0 | 5.0 | 0.00 | 0.05 | 0.00 | 90 | 1009.0 |
| 20260903053504 | 57 | 208 | 1.0 | 6.0 | 0.00 | 0.05 | 0.00 | 90 | 1009.0 |
| 20260903053004 | 57 | 212 | 1.0 | 6.0 | 0.00 | 0.05 | 0.00 | 89 | 1009.0 |
| 20260903052504 | 56 | 219 | 0.0 | 4.0 | 0.00 | 0.05 | 0.00 | 89 | 1010.0 |
| 20260903052004 | 56 | 202 | 0.0 | 3.0 | 0.00 | 0.05 | 0.00 | 89 | 1010.0 |
| 20260903051503 | 56 | 181 | 0.0 | 3.0 | 0.00 | 0.05 | 0.00 | 89 | 1010.0 |
| 20260903051005 | 56 | 206 | 1.0 | 5.0 | 0.00 | 0.05 | 0.00 | 89 | 1010.0 |
| 20260903050503 | 56 | 235 | 1.0 | 5.0 | 0.00 | 0.05 | 0.00 | 89 | 1010.0 |
| 20260903050005 | 56 | 336 | 0.0 | 3.0 | 0.00 | 0.05 | 0.00 | 89 | 1010.0 |